sensor_id;sensor_type;location;lat;lon;timestamp;temperature;humidity
16907;DHT22;8570;52.380;4.654;2022-08-19T00:03:17;19.20;99.90
16907;DHT22;8570;52.380;4.654;2022-08-19T00:08:19;19.20;99.90
16907;DHT22;8570;52.380;4.654;2022-08-19T00:13:22;19.20;99.90
16907;DHT22;8570;52.380;4.654;2022-08-19T00:18:24;19.20;99.90
16907;DHT22;8570;52.380;4.654;2022-08-19T00:23:27;19.20;99.90
16907;DHT22;8570;52.380;4.654;2022-08-19T00:28:30;19.10;99.90
16907;DHT22;8570;52.380;4.654;2022-08-19T00:33:32;19.10;99.90
16907;DHT22;8570;52.380;4.654;2022-08-19T00:38:36;19.10;99.90
16907;DHT22;8570;52.380;4.654;2022-08-19T00:43:39;19.10;99.90
16907;DHT22;8570;52.380;4.654;2022-08-19T00:48:41;19.00;99.90
16907;DHT22;8570;52.380;4.654;2022-08-19T00:53:43;19.00;99.90
16907;DHT22;8570;52.380;4.654;2022-08-19T00:58:46;19.00;99.90
16907;DHT22;8570;52.380;4.654;2022-08-19T01:03:48;19.00;99.90
16907;DHT22;8570;52.380;4.654;2022-08-19T01:08:50;19.00;99.90
16907;DHT22;8570;52.380;4.654;2022-08-19T01:13:53;18.90;99.90
16907;DHT22;8570;52.380;4.654;2022-08-19T01:18:55;19.00;99.90
16907;DHT22;8570;52.380;4.654;2022-08-19T01:23:59;18.90;99.90
16907;DHT22;8570;52.380;4.654;2022-08-19T01:29:01;18.90;99.90
16907;DHT22;8570;52.380;4.654;2022-08-19T01:34:03;18.90;99.90
16907;DHT22;8570;52.380;4.654;2022-08-19T01:39:09;18.90;99.90
16907;DHT22;8570;52.380;4.654;2022-08-19T01:44:12;18.90;99.90
16907;DHT22;8570;52.380;4.654;2022-08-19T01:49:14;18.80;99.90
16907;DHT22;8570;52.380;4.654;2022-08-19T01:54:19;18.80;99.90
16907;DHT22;8570;52.380;4.654;2022-08-19T01:59:23;18.80;99.90
16907;DHT22;8570;52.380;4.654;2022-08-19T02:04:25;18.80;99.90
16907;DHT22;8570;52.380;4.654;2022-08-19T02:09:30;18.70;99.90
16907;DHT22;8570;52.380;4.654;2022-08-19T02:14:34;18.70;99.90
16907;DHT22;8570;52.380;4.654;2022-08-19T02:19:36;18.70;99.90
16907;DHT22;8570;52.380;4.654;2022-08-19T02:24:39;18.60;99.90
16907;DHT22;8570;52.380;4.654;2022-08-19T02:29:41;18.60;99.90
16907;DHT22;8570;52.380;4.654;2022-08-19T02:34:43;18.50;99.90
16907;DHT22;8570;52.380;4.654;2022-08-19T02:39:46;18.50;99.90
16907;DHT22;8570;52.380;4.654;2022-08-19T02:44:48;18.50;99.90
16907;DHT22;8570;52.380;4.654;2022-08-19T02:49:50;18.40;99.90
16907;DHT22;8570;52.380;4.654;2022-08-19T02:54:53;18.40;99.90
16907;DHT22;8570;52.380;4.654;2022-08-19T02:59:58;18.40;99.90
16907;DHT22;8570;52.380;4.654;2022-08-19T03:05:02;18.40;99.90
16907;DHT22;8570;52.380;4.654;2022-08-19T03:10:06;18.40;99.90
16907;DHT22;8570;52.380;4.654;2022-08-19T03:15:09;18.30;99.90
16907;DHT22;8570;52.380;4.654;2022-08-19T03:20:11;18.30;99.90
16907;DHT22;8570;52.380;4.654;2022-08-19T03:25:14;18.30;99.90
16907;DHT22;8570;52.380;4.654;2022-08-19T03:30:17;18.30;99.90
16907;DHT22;8570;52.380;4.654;2022-08-19T03:35:19;18.30;99.90
16907;DHT22;8570;52.380;4.654;2022-08-19T03:40:23;18.20;99.90
16907;DHT22;8570;52.380;4.654;2022-08-19T03:45:24;18.20;99.90
16907;DHT22;8570;52.380;4.654;2022-08-19T03:50:27;18.20;99.90
16907;DHT22;8570;52.380;4.654;2022-08-19T03:55:31;18.30;99.90
16907;DHT22;8570;52.380;4.654;2022-08-19T04:00:33;18.20;99.90
16907;DHT22;8570;52.380;4.654;2022-08-19T04:05:35;18.20;99.90
16907;DHT22;8570;52.380;4.654;2022-08-19T04:10:39;18.20;99.90
16907;DHT22;8570;52.380;4.654;2022-08-19T04:15:44;18.20;99.90
16907;DHT22;8570;52.380;4.654;2022-08-19T04:20:47;18.10;99.90
16907;DHT22;8570;52.380;4.654;2022-08-19T04:25:51;18.10;99.90
16907;DHT22;8570;52.380;4.654;2022-08-19T04:30:54;18.10;99.90
16907;DHT22;8570;52.380;4.654;2022-08-19T04:35:56;18.10;99.90
16907;DHT22;8570;52.380;4.654;2022-08-19T04:41:03;18.00;99.90
16907;DHT22;8570;52.380;4.654;2022-08-19T04:46:22;18.00;99.90
16907;DHT22;8570;52.380;4.654;2022-08-19T04:51:25;18.00;99.90
16907;DHT22;8570;52.380;4.654;2022-08-19T04:56:28;18.00;99.90
16907;DHT22;8570;52.380;4.654;2022-08-19T05:01:31;18.00;99.90
16907;DHT22;8570;52.380;4.654;2022-08-19T05:06:34;18.00;99.90
16907;DHT22;8570;52.380;4.654;2022-08-19T05:11:37;18.10;99.90
16907;DHT22;8570;52.380;4.654;2022-08-19T05:16:40;18.10;99.90
16907;DHT22;8570;52.380;4.654;2022-08-19T05:21:43;18.20;99.90
16907;DHT22;8570;52.380;4.654;2022-08-19T05:27:04;18.20;99.90
16907;DHT22;8570;52.380;4.654;2022-08-19T05:32:07;18.20;99.90
16907;DHT22;8570;52.380;4.654;2022-08-19T05:37:11;18.20;99.90
16907;DHT22;8570;52.380;4.654;2022-08-19T05:42:14;18.20;99.90
16907;DHT22;8570;52.380;4.654;2022-08-19T05:47:17;18.30;99.90
16907;DHT22;8570;52.380;4.654;2022-08-19T05:52:20;18.30;99.90
16907;DHT22;8570;52.380;4.654;2022-08-19T05:57:23;18.40;99.90
16907;DHT22;8570;52.380;4.654;2022-08-19T06:02:26;18.40;99.90
16907;DHT22;8570;52.380;4.654;2022-08-19T06:07:28;18.50;99.90
16907;DHT22;8570;52.380;4.654;2022-08-19T06:12:32;18.50;99.90
16907;DHT22;8570;52.380;4.654;2022-08-19T06:17:35;18.60;99.90
16907;DHT22;8570;52.380;4.654;2022-08-19T06:22:38;18.70;99.90
16907;DHT22;8570;52.380;4.654;2022-08-19T06:27:41;18.70;99.90
16907;DHT22;8570;52.380;4.654;2022-08-19T06:32:43;18.90;99.90
16907;DHT22;8570;52.380;4.654;2022-08-19T06:37:45;18.90;99.90
16907;DHT22;8570;52.380;4.654;2022-08-19T06:42:48;19.00;99.90
16907;DHT22;8570;52.380;4.654;2022-08-19T06:47:50;19.10;99.90
16907;DHT22;8570;52.380;4.654;2022-08-19T06:52:56;19.20;99.90
16907;DHT22;8570;52.380;4.654;2022-08-19T06:58:01;19.30;99.90
16907;DHT22;8570;52.380;4.654;2022-08-19T07:03:04;19.40;99.90
16907;DHT22;8570;52.380;4.654;2022-08-19T07:08:05;19.50;99.90
16907;DHT22;8570;52.380;4.654;2022-08-19T07:13:09;19.60;99.90
16907;DHT22;8570;52.380;4.654;2022-08-19T07:18:11;19.70;99.90
16907;DHT22;8570;52.380;4.654;2022-08-19T07:23:14;19.80;99.90
16907;DHT22;8570;52.380;4.654;2022-08-19T07:28:17;20.00;99.90
16907;DHT22;8570;52.380;4.654;2022-08-19T07:33:20;20.20;99.90
16907;DHT22;8570;52.380;4.654;2022-08-19T07:38:24;20.40;99.90
16907;DHT22;8570;52.380;4.654;2022-08-19T07:43:30;20.60;99.90
16907;DHT22;8570;52.380;4.654;2022-08-19T07:48:33;20.70;99.90
16907;DHT22;8570;52.380;4.654;2022-08-19T07:53:35;20.80;99.90
16907;DHT22;8570;52.380;4.654;2022-08-19T07:58:44;20.90;99.90
16907;DHT22;8570;52.380;4.654;2022-08-19T08:03:47;21.00;99.90
16907;DHT22;8570;52.380;4.654;2022-08-19T08:09:11;21.00;99.90
16907;DHT22;8570;52.380;4.654;2022-08-19T08:14:22;21.10;99.90
16907;DHT22;8570;52.380;4.654;2022-08-19T08:19:25;21.10;99.90
16907;DHT22;8570;52.380;4.654;2022-08-19T08:24:29;21.20;99.90
16907;DHT22;8570;52.380;4.654;2022-08-19T08:29:36;21.30;99.90
16907;DHT22;8570;52.380;4.654;2022-08-19T08:34:38;21.50;99.90
16907;DHT22;8570;52.380;4.654;2022-08-19T08:39:40;21.60;99.90
16907;DHT22;8570;52.380;4.654;2022-08-19T08:44:52;21.80;99.90
16907;DHT22;8570;52.380;4.654;2022-08-19T08:50:00;22.00;99.90
16907;DHT22;8570;52.380;4.654;2022-08-19T08:55:07;22.20;99.90
16907;DHT22;8570;52.380;4.654;2022-08-19T09:00:15;22.30;99.90
16907;DHT22;8570;52.380;4.654;2022-08-19T09:05:19;22.50;99.90
16907;DHT22;8570;52.380;4.654;2022-08-19T09:10:27;22.60;99.90
16907;DHT22;8570;52.380;4.654;2022-08-19T09:15:36;22.70;99.90
16907;DHT22;8570;52.380;4.654;2022-08-19T09:20:40;22.80;99.90
16907;DHT22;8570;52.380;4.654;2022-08-19T09:25:41;22.80;99.90
16907;DHT22;8570;52.380;4.654;2022-08-19T09:30:45;22.80;99.90
16907;DHT22;8570;52.380;4.654;2022-08-19T09:35:47;22.70;99.90
16907;DHT22;8570;52.380;4.654;2022-08-19T09:40:49;22.70;99.90
16907;DHT22;8570;52.380;4.654;2022-08-19T09:45:52;22.80;99.90
16907;DHT22;8570;52.380;4.654;2022-08-19T09:50:54;22.80;99.90
16907;DHT22;8570;52.380;4.654;2022-08-19T09:55:56;22.90;99.90
16907;DHT22;8570;52.380;4.654;2022-08-19T10:01:01;22.90;99.90
16907;DHT22;8570;52.380;4.654;2022-08-19T10:06:04;23.00;99.90
16907;DHT22;8570;52.380;4.654;2022-08-19T10:11:07;23.10;99.90
16907;DHT22;8570;52.380;4.654;2022-08-19T10:16:14;23.30;99.90
16907;DHT22;8570;52.380;4.654;2022-08-19T10:21:18;23.40;99.90
16907;DHT22;8570;52.380;4.654;2022-08-19T10:26:23;23.40;99.90
16907;DHT22;8570;52.380;4.654;2022-08-19T10:31:31;23.30;99.90
16907;DHT22;8570;52.380;4.654;2022-08-19T10:36:35;23.30;99.90
16907;DHT22;8570;52.380;4.654;2022-08-19T10:41:40;23.40;99.90
16907;DHT22;8570;52.380;4.654;2022-08-19T10:46:45;23.50;99.90
16907;DHT22;8570;52.380;4.654;2022-08-19T10:51:47;23.60;99.90
16907;DHT22;8570;52.380;4.654;2022-08-19T10:57:06;23.80;99.90
16907;DHT22;8570;52.380;4.654;2022-08-19T11:02:10;23.90;99.90
16907;DHT22;8570;52.380;4.654;2022-08-19T11:07:14;23.90;99.90
16907;DHT22;8570;52.380;4.654;2022-08-19T11:12:19;23.90;99.90
16907;DHT22;8570;52.380;4.654;2022-08-19T11:17:22;24.00;99.90
16907;DHT22;8570;52.380;4.654;2022-08-19T11:22:24;24.10;99.90
16907;DHT22;8570;52.380;4.654;2022-08-19T11:27:26;24.10;99.90
16907;DHT22;8570;52.380;4.654;2022-08-19T11:32:30;24.10;99.90
16907;DHT22;8570;52.380;4.654;2022-08-19T11:37:32;24.20;99.90
16907;DHT22;8570;52.380;4.654;2022-08-19T11:42:39;24.40;99.90
16907;DHT22;8570;52.380;4.654;2022-08-19T11:47:57;24.50;99.90
16907;DHT22;8570;52.380;4.654;2022-08-19T11:53:02;24.50;99.90
16907;DHT22;8570;52.380;4.654;2022-08-19T11:58:04;24.40;99.90
16907;DHT22;8570;52.380;4.654;2022-08-19T12:03:12;24.30;99.90
16907;DHT22;8570;52.380;4.654;2022-08-19T12:08:14;24.40;99.90
16907;DHT22;8570;52.380;4.654;2022-08-19T12:13:18;24.70;99.90
16907;DHT22;8570;52.380;4.654;2022-08-19T12:18:21;24.80;99.90
16907;DHT22;8570;52.380;4.654;2022-08-19T12:23:25;25.00;99.90
16907;DHT22;8570;52.380;4.654;2022-08-19T12:28:27;25.00;99.90
16907;DHT22;8570;52.380;4.654;2022-08-19T12:33:39;25.00;99.90
16907;DHT22;8570;52.380;4.654;2022-08-19T12:38:44;25.10;99.90
16907;DHT22;8570;52.380;4.654;2022-08-19T12:43:49;25.30;99.90
16907;DHT22;8570;52.380;4.654;2022-08-19T12:48:52;25.40;99.90
16907;DHT22;8570;52.380;4.654;2022-08-19T12:53:54;25.70;99.90
16907;DHT22;8570;52.380;4.654;2022-08-19T12:59:00;25.80;99.90
16907;DHT22;8570;52.380;4.654;2022-08-19T13:04:05;25.90;99.90
16907;DHT22;8570;52.380;4.654;2022-08-19T13:09:07;25.90;99.90
16907;DHT22;8570;52.380;4.654;2022-08-19T13:14:09;26.10;99.90
16907;DHT22;8570;52.380;4.654;2022-08-19T13:19:13;26.30;99.90
16907;DHT22;8570;52.380;4.654;2022-08-19T13:24:15;26.40;99.90
16907;DHT22;8570;52.380;4.654;2022-08-19T13:29:17;26.40;99.90
16907;DHT22;8570;52.380;4.654;2022-08-19T13:34:38;26.40;99.90
16907;DHT22;8570;52.380;4.654;2022-08-19T13:39:40;26.30;99.90
16907;DHT22;8570;52.380;4.654;2022-08-19T13:44:42;26.20;99.90
16907;DHT22;8570;52.380;4.654;2022-08-19T13:49:46;26.10;99.90
16907;DHT22;8570;52.380;4.654;2022-08-19T13:54:48;26.10;99.90
16907;DHT22;8570;52.380;4.654;2022-08-19T13:59:50;25.80;99.90
16907;DHT22;8570;52.380;4.654;2022-08-19T14:04:53;25.50;99.90
16907;DHT22;8570;52.380;4.654;2022-08-19T14:09:55;25.50;99.90
16907;DHT22;8570;52.380;4.654;2022-08-19T14:14:59;25.50;99.90
16907;DHT22;8570;52.380;4.654;2022-08-19T14:20:06;25.40;99.90
16907;DHT22;8570;52.380;4.654;2022-08-19T14:25:12;25.10;99.90
16907;DHT22;8570;52.380;4.654;2022-08-19T14:30:17;25.00;99.90
16907;DHT22;8570;52.380;4.654;2022-08-19T14:35:21;24.80;99.90
16907;DHT22;8570;52.380;4.654;2022-08-19T14:40:26;24.70;99.90
16907;DHT22;8570;52.380;4.654;2022-08-19T14:45:29;24.70;99.90
16907;DHT22;8570;52.380;4.654;2022-08-19T14:50:34;24.80;99.90
16907;DHT22;8570;52.380;4.654;2022-08-19T14:55:36;24.90;99.90
16907;DHT22;8570;52.380;4.654;2022-08-19T15:00:38;25.10;99.90
16907;DHT22;8570;52.380;4.654;2022-08-19T15:05:41;25.20;99.90
16907;DHT22;8570;52.380;4.654;2022-08-19T15:10:43;25.20;99.90
16907;DHT22;8570;52.380;4.654;2022-08-19T15:15:47;25.30;99.90
16907;DHT22;8570;52.380;4.654;2022-08-19T15:20:50;25.30;99.90
16907;DHT22;8570;52.380;4.654;2022-08-19T15:25:52;25.10;99.90
16907;DHT22;8570;52.380;4.654;2022-08-19T15:30:55;24.90;99.90
16907;DHT22;8570;52.380;4.654;2022-08-19T15:35:58;24.80;99.90
16907;DHT22;8570;52.380;4.654;2022-08-19T15:41:00;24.70;99.90
16907;DHT22;8570;52.380;4.654;2022-08-19T15:46:17;24.60;99.90
16907;DHT22;8570;52.380;4.654;2022-08-19T15:51:21;24.50;99.90
16907;DHT22;8570;52.380;4.654;2022-08-19T15:56:22;24.40;99.90
16907;DHT22;8570;52.380;4.654;2022-08-19T16:01:24;24.40;99.90
16907;DHT22;8570;52.380;4.654;2022-08-19T16:06:45;24.30;99.90
16907;DHT22;8570;52.380;4.654;2022-08-19T16:11:48;24.10;99.90
16907;DHT22;8570;52.380;4.654;2022-08-19T16:16:50;24.10;99.90
16907;DHT22;8570;52.380;4.654;2022-08-19T16:21:55;24.10;99.90
16907;DHT22;8570;52.380;4.654;2022-08-19T16:26:57;24.20;99.90
16907;DHT22;8570;52.380;4.654;2022-08-19T16:32:01;24.20;99.90
16907;DHT22;8570;52.380;4.654;2022-08-19T16:37:05;24.20;99.90
16907;DHT22;8570;52.380;4.654;2022-08-19T16:42:08;24.10;99.90
16907;DHT22;8570;52.380;4.654;2022-08-19T16:47:11;24.00;99.90
16907;DHT22;8570;52.380;4.654;2022-08-19T16:52:15;23.90;99.90
16907;DHT22;8570;52.380;4.654;2022-08-19T16:57:17;23.80;99.90
16907;DHT22;8570;52.380;4.654;2022-08-19T17:02:20;23.70;99.90
16907;DHT22;8570;52.380;4.654;2022-08-19T17:07:25;23.60;99.90
16907;DHT22;8570;52.380;4.654;2022-08-19T17:12:26;23.40;99.90
16907;DHT22;8570;52.380;4.654;2022-08-19T17:17:30;23.30;99.90
16907;DHT22;8570;52.380;4.654;2022-08-19T17:22:34;23.20;99.90
16907;DHT22;8570;52.380;4.654;2022-08-19T17:27:36;23.20;99.90
16907;DHT22;8570;52.380;4.654;2022-08-19T17:32:38;23.00;99.90
16907;DHT22;8570;52.380;4.654;2022-08-19T17:37:43;22.90;99.90
16907;DHT22;8570;52.380;4.654;2022-08-19T17:42:45;22.80;99.90
16907;DHT22;8570;52.380;4.654;2022-08-19T17:47:47;22.80;99.90
16907;DHT22;8570;52.380;4.654;2022-08-19T17:52:50;22.70;99.90
16907;DHT22;8570;52.380;4.654;2022-08-19T17:57:52;22.80;99.90
16907;DHT22;8570;52.380;4.654;2022-08-19T18:02:56;22.70;99.90
16907;DHT22;8570;52.380;4.654;2022-08-19T18:08:01;22.70;99.90
16907;DHT22;8570;52.380;4.654;2022-08-19T18:13:04;22.60;99.90
16907;DHT22;8570;52.380;4.654;2022-08-19T18:18:06;22.60;99.90
16907;DHT22;8570;52.380;4.654;2022-08-19T18:23:10;22.50;99.90
16907;DHT22;8570;52.380;4.654;2022-08-19T18:28:12;22.50;99.90
16907;DHT22;8570;52.380;4.654;2022-08-19T18:33:14;22.40;99.90
16907;DHT22;8570;52.380;4.654;2022-08-19T18:38:19;22.40;99.90
16907;DHT22;8570;52.380;4.654;2022-08-19T18:43:39;22.30;99.90
16907;DHT22;8570;52.380;4.654;2022-08-19T18:48:58;22.20;99.90
16907;DHT22;8570;52.380;4.654;2022-08-19T18:54:10;22.20;99.90
16907;DHT22;8570;52.380;4.654;2022-08-19T18:59:12;22.10;99.90
16907;DHT22;8570;52.380;4.654;2022-08-19T19:04:15;22.10;99.90
16907;DHT22;8570;52.380;4.654;2022-08-19T19:09:21;22.10;99.90
16907;DHT22;8570;52.380;4.654;2022-08-19T19:14:33;22.00;99.90
16907;DHT22;8570;52.380;4.654;2022-08-19T19:19:39;22.00;99.90
16907;DHT22;8570;52.380;4.654;2022-08-19T19:24:43;22.00;99.90
16907;DHT22;8570;52.380;4.654;2022-08-19T19:29:49;22.00;99.90
16907;DHT22;8570;52.380;4.654;2022-08-19T19:34:55;21.90;99.90
16907;DHT22;8570;52.380;4.654;2022-08-19T19:39:59;21.90;99.90
16907;DHT22;8570;52.380;4.654;2022-08-19T19:45:05;21.90;99.90
16907;DHT22;8570;52.380;4.654;2022-08-19T19:50:08;21.80;99.90
16907;DHT22;8570;52.380;4.654;2022-08-19T19:55:14;21.80;99.90
16907;DHT22;8570;52.380;4.654;2022-08-19T20:00:19;21.70;99.90
16907;DHT22;8570;52.380;4.654;2022-08-19T20:05:22;21.70;99.90
16907;DHT22;8570;52.380;4.654;2022-08-19T20:10:25;21.70;99.90
16907;DHT22;8570;52.380;4.654;2022-08-19T20:15:28;21.70;99.90
16907;DHT22;8570;52.380;4.654;2022-08-19T20:20:30;21.70;99.90
16907;DHT22;8570;52.380;4.654;2022-08-19T20:25:34;21.60;99.90
16907;DHT22;8570;52.380;4.654;2022-08-19T20:30:38;21.60;99.90
16907;DHT22;8570;52.380;4.654;2022-08-19T20:35:41;21.60;99.90
16907;DHT22;8570;52.380;4.654;2022-08-19T20:40:45;21.60;99.90
16907;DHT22;8570;52.380;4.654;2022-08-19T20:45:47;21.60;99.90
16907;DHT22;8570;52.380;4.654;2022-08-19T20:50:49;21.60;99.90
16907;DHT22;8570;52.380;4.654;2022-08-19T20:55:52;21.50;99.90
16907;DHT22;8570;52.380;4.654;2022-08-19T21:00:58;21.50;99.90
16907;DHT22;8570;52.380;4.654;2022-08-19T21:06:02;21.50;99.90
16907;DHT22;8570;52.380;4.654;2022-08-19T21:11:06;21.50;99.90
16907;DHT22;8570;52.380;4.654;2022-08-19T21:16:08;21.50;99.90
16907;DHT22;8570;52.380;4.654;2022-08-19T21:21:10;21.40;99.90
16907;DHT22;8570;52.380;4.654;2022-08-19T21:26:13;21.60;99.90
16907;DHT22;8570;52.380;4.654;2022-08-19T21:31:15;21.60;99.90
16907;DHT22;8570;52.380;4.654;2022-08-19T21:36:17;21.60;99.90
16907;DHT22;8570;52.380;4.654;2022-08-19T21:41:21;21.50;99.90
16907;DHT22;8570;52.380;4.654;2022-08-19T21:46:23;21.40;99.90
16907;DHT22;8570;52.380;4.654;2022-08-19T21:51:25;21.40;99.90
16907;DHT22;8570;52.380;4.654;2022-08-19T21:56:29;21.30;99.90
16907;DHT22;8570;52.380;4.654;2022-08-19T22:01:31;21.20;99.90
16907;DHT22;8570;52.380;4.654;2022-08-19T22:06:33;21.10;99.90
16907;DHT22;8570;52.380;4.654;2022-08-19T22:11:37;21.10;99.90
16907;DHT22;8570;52.380;4.654;2022-08-19T22:16:39;21.00;99.90
16907;DHT22;8570;52.380;4.654;2022-08-19T22:21:41;20.90;99.90
16907;DHT22;8570;52.380;4.654;2022-08-19T22:26:44;20.90;99.90
16907;DHT22;8570;52.380;4.654;2022-08-19T22:31:46;20.90;99.90
16907;DHT22;8570;52.380;4.654;2022-08-19T22:36:48;20.90;99.90
16907;DHT22;8570;52.380;4.654;2022-08-19T22:41:51;20.80;99.90
16907;DHT22;8570;52.380;4.654;2022-08-19T22:46:53;20.80;99.90
16907;DHT22;8570;52.380;4.654;2022-08-19T22:51:55;20.70;99.90
16907;DHT22;8570;52.380;4.654;2022-08-19T22:57:19;20.70;99.90
16907;DHT22;8570;52.380;4.654;2022-08-19T23:02:24;20.60;99.90
16907;DHT22;8570;52.380;4.654;2022-08-19T23:07:26;20.60;99.90
16907;DHT22;8570;52.380;4.654;2022-08-19T23:12:31;20.60;99.90
16907;DHT22;8570;52.380;4.654;2022-08-19T23:17:33;20.50;99.90
16907;DHT22;8570;52.380;4.654;2022-08-19T23:22:36;20.40;99.90
16907;DHT22;8570;52.380;4.654;2022-08-19T23:27:41;20.40;99.90
16907;DHT22;8570;52.380;4.654;2022-08-19T23:33:03;20.30;99.90
16907;DHT22;8570;52.380;4.654;2022-08-19T23:38:06;20.30;99.90
16907;DHT22;8570;52.380;4.654;2022-08-19T23:43:10;20.20;99.90
16907;DHT22;8570;52.380;4.654;2022-08-19T23:48:13;20.20;99.90
16907;DHT22;8570;52.380;4.654;2022-08-19T23:53:15;20.20;99.90
16907;DHT22;8570;52.380;4.654;2022-08-19T23:58:19;20.20;99.90
